LICC/CTA METAR and TAF weather

Enter ICAO airport designator
Station Type Date Time Source
LICC METAR 2018/12/12 08:20 UTC NOAA

LICC 120820Z 24005KT CAVOK 11/06 Q1020


Station Type Date Time Source
LICC Decoded METAR 2018/12/12 08:20 UTC NOAA

Catania / Fontanarossa, Italy (LICC) 37-28N 015-03E 17M
Dec 12, 2018 - 03:20 AM EST / 2018.12.12 0820 UTC
Wind: from the WSW (240 degrees) at 6 MPH (5 KT):0
Visibility: greater than 7 mile(s):0
Temperature: 51 F (11 C)
Dew Point: 42 F (6 C)
Relative Humidity: 71%
Pressure (altimeter): 30.12 in. Hg (1020 hPa)
ob: LICC 120820Z 24005KT CAVOK 11/06 Q1020
cycle: 8

Station Type Date Time Source
LICC TAF 2018/12/12 06:21 UTC NOAA

TAF LICC 120500Z 1206/1306 VRB05KT 9999 SCT030


Example: see airport list